createdAt,value
2018-08-16T00:00:40.200Z,66.60
2018-08-16T00:03:07.738Z,66.46
2018-08-16T00:05:34.984Z,66.28
2018-08-16T00:08:02.208Z,66.09
2018-08-16T00:10:29.447Z,65.87
2018-08-16T00:12:56.724Z,65.50
2018-08-16T00:15:23.960Z,65.93
2018-08-16T00:17:51.247Z,66.00
2018-08-16T00:23:08.659Z,65.99
2018-08-16T00:25:35.898Z,65.70
2018-08-16T00:28:03.176Z,65.48
2018-08-16T00:30:30.402Z,65.88
2018-08-16T00:32:57.665Z,65.94
2018-08-16T00:35:24.938Z,66.43
2018-08-16T00:37:52.216Z,66.28
2018-08-16T00:40:19.463Z,66.44
2018-08-16T00:42:46.714Z,66.45
2018-08-16T00:45:14.204Z,66.60
2018-08-16T00:47:41.507Z,67.49
2018-08-16T00:50:12.386Z,67.49
2018-08-16T00:52:39.637Z,67.61
2018-08-16T00:55:07.912Z,67.31
2018-08-16T00:57:35.669Z,67.25
2018-08-16T01:00:03.099Z,67.26
2018-08-16T01:02:30.349Z,67.50
2018-08-16T01:04:57.576Z,67.80
2018-08-16T01:07:25.092Z,68.37
2018-08-16T01:09:52.394Z,68.53
2018-08-16T01:12:19.651Z,68.80
2018-08-16T01:14:46.863Z,68.99
2018-08-16T01:17:14.142Z,69.13
2018-08-16T01:19:41.435Z,68.73
2018-08-16T01:22:09.097Z,68.45
2018-08-16T01:24:36.668Z,68.89
2018-08-16T01:27:03.964Z,68.71
2018-08-16T01:29:31.239Z,69.03
2018-08-16T01:31:58.497Z,68.55
2018-08-16T01:34:25.723Z,68.77
2018-08-16T01:36:52.950Z,69.35
2018-08-16T01:39:20.174Z,69.63
2018-08-16T01:41:47.394Z,69.12
2018-08-16T01:44:14.630Z,69.28
2018-08-16T01:46:41.828Z,69.15
2018-08-16T01:49:20.602Z,69.53
2018-08-16T01:51:47.809Z,69.92
2018-08-16T01:54:15.032Z,70.12
2018-08-16T01:56:42.231Z,69.66
2018-08-16T01:59:09.459Z,70.04
2018-08-16T02:01:36.683Z,69.75
2018-08-16T02:04:03.957Z,70.13
2018-08-16T02:06:31.175Z,70.68
2018-08-16T02:08:58.438Z,70.89
2018-08-16T02:11:25.687Z,70.80
2018-08-16T02:13:53.199Z,70.61
2018-08-16T02:16:20.447Z,69.92
2018-08-16T02:18:47.683Z,70.61
2018-08-16T02:21:14.932Z,70.05
2018-08-16T02:23:42.161Z,70.30
2018-08-16T02:26:09.383Z,70.75
2018-08-16T02:28:36.642Z,70.34
2018-08-16T02:31:03.967Z,70.43
2018-08-16T02:33:31.647Z,70.95
2018-08-16T02:35:58.879Z,71.00
2018-08-16T02:38:26.122Z,70.80
2018-08-16T02:40:53.340Z,71.02
2018-08-16T02:43:20.576Z,70.72
2018-08-16T02:45:47.783Z,71.15
2018-08-16T02:48:15.039Z,71.08
2018-08-16T02:50:42.245Z,71.34
2018-08-16T02:53:09.499Z,71.05
2018-08-16T02:55:36.708Z,71.38
2018-08-16T02:58:04.194Z,70.68
2018-08-16T03:00:31.411Z,70.85
2018-08-16T03:02:58.652Z,70.73
2018-08-16T03:05:25.893Z,71.13
2018-08-16T03:07:53.151Z,71.40
2018-08-16T03:10:20.360Z,71.76
2018-08-16T03:12:47.563Z,71.26
2018-08-16T03:15:14.846Z,71.12
2018-08-16T03:17:43.722Z,71.70
2018-08-16T03:20:11.940Z,71.71
2018-08-16T03:22:43.152Z,71.33
2018-08-16T03:25:10.431Z,71.27
2018-08-16T03:27:37.661Z,71.64
2018-08-16T03:30:05.251Z,71.27
2018-08-16T03:32:32.452Z,72.02
2018-08-16T03:34:59.722Z,71.34
2018-08-16T03:37:26.954Z,71.46
2018-08-16T03:39:54.183Z,71.60
2018-08-16T03:42:21.383Z,71.37
2018-08-16T03:44:48.614Z,71.23
2018-08-16T03:47:15.806Z,72.20
2018-08-16T03:49:43.050Z,71.67
2018-08-16T03:52:10.252Z,72.38
2018-08-16T03:54:37.477Z,72.50
2018-08-16T03:57:04.749Z,72.07
2018-08-16T03:59:31.988Z,72.90
2018-08-16T04:01:59.195Z,73.20
2018-08-16T04:04:26.465Z,72.85
2018-08-16T04:06:53.715Z,72.69
2018-08-16T04:09:21.107Z,73.20
2018-08-16T04:11:48.334Z,73.04
2018-08-16T04:14:15.592Z,73.03
2018-08-16T04:16:42.828Z,73.17
2018-08-16T04:19:10.084Z,72.66
2018-08-16T04:21:37.335Z,72.79
2018-08-16T04:24:04.609Z,73.04
2018-08-16T04:26:31.814Z,72.64
2018-08-16T04:28:59.142Z,73.10
2018-08-16T04:31:26.366Z,73.19
2018-08-16T04:33:53.621Z,72.98
2018-08-16T04:36:20.831Z,73.43
2018-08-16T04:38:48.074Z,73.02
2018-08-16T04:41:15.359Z,73.55
2018-08-16T04:43:42.573Z,72.82
2018-08-16T04:46:09.935Z,73.04
2018-08-16T04:48:37.181Z,73.50
2018-08-16T04:51:04.551Z,73.89
2018-08-16T04:53:31.846Z,73.43
2018-08-16T04:55:59.159Z,73.35
2018-08-16T04:58:26.382Z,73.05
2018-08-16T05:00:53.638Z,72.75
2018-08-16T05:03:20.879Z,72.70
2018-08-16T05:05:48.131Z,71.98
2018-08-16T05:08:15.352Z,70.99
2018-08-16T05:10:42.590Z,71.50
2018-08-16T05:13:09.817Z,70.83
2018-08-16T05:15:37.078Z,70.63
2018-08-16T05:18:04.608Z,69.57
2018-08-16T05:20:31.896Z,69.18
2018-08-16T05:22:59.159Z,69.00
2018-08-16T05:25:26.430Z,68.35
2018-08-16T05:27:53.986Z,68.11
2018-08-16T05:30:21.241Z,67.44
2018-08-16T05:32:48.468Z,66.08
2018-08-16T05:35:15.729Z,65.33
2018-08-16T05:37:43.018Z,65.14
2018-08-16T05:40:10.919Z,64.74
2018-08-16T05:42:38.644Z,63.64
2018-08-16T05:45:06.626Z,62.35
2018-08-16T05:47:34.076Z,60.58
2018-08-16T05:50:01.331Z,59.13
2018-08-16T05:52:28.580Z,58.73
2018-08-16T05:54:56.081Z,57.77
2018-08-16T05:57:23.327Z,57.22
2018-08-16T05:59:50.592Z,56.91
2018-08-16T06:02:18.004Z,56.30
2018-08-16T06:04:45.242Z,55.61
2018-08-16T06:07:12.550Z,54.48
2018-08-16T06:09:39.774Z,54.00
2018-08-16T06:12:07.110Z,53.04
2018-08-16T06:14:34.345Z,52.49
2018-08-16T06:17:01.638Z,51.98
2018-08-16T06:19:28.883Z,51.76
2018-08-16T06:21:56.215Z,50.79
2018-08-16T06:24:23.950Z,50.38
2018-08-16T06:26:51.310Z,50.04
2018-08-16T06:29:18.605Z,48.89
2018-08-16T06:31:45.953Z,48.57
2018-08-16T06:34:13.124Z,48.48
2018-08-16T06:36:40.417Z,48.93
2018-08-16T06:39:09.443Z,47.82
2018-08-16T06:41:36.911Z,47.18
2018-08-16T06:44:04.399Z,47.32
2018-08-16T06:46:31.738Z,46.70
2018-08-16T06:48:58.975Z,46.43
2018-08-16T06:51:26.231Z,45.64
2018-08-16T06:53:53.786Z,44.60
2018-08-16T06:56:21.186Z,44.52
2018-08-16T06:58:48.411Z,44.18
2018-08-16T07:01:15.700Z,44.34
2018-08-16T07:03:43.455Z,44.18
2018-08-16T07:06:10.735Z,42.84
2018-08-16T07:08:37.984Z,42.09
2018-08-16T07:11:05.263Z,41.55
2018-08-16T07:13:32.555Z,41.35
2018-08-16T07:15:59.850Z,41.24
2018-08-16T07:18:27.067Z,41.02
2018-08-16T07:20:54.326Z,40.45
2018-08-16T07:23:21.579Z,39.34
2018-08-16T07:25:48.827Z,38.64
2018-08-16T07:28:16.204Z,38.47
2018-08-16T07:30:43.440Z,37.85
2018-08-16T07:33:10.661Z,39.13
2018-08-16T07:35:37.867Z,37.87
2018-08-16T07:38:05.376Z,37.06
2018-08-16T07:40:33.696Z,36.81
2018-08-16T07:43:00.926Z,36.98
2018-08-16T07:45:28.230Z,36.39
2018-08-16T07:47:55.465Z,36.49
2018-08-16T07:50:22.688Z,36.71
2018-08-16T07:52:49.969Z,36.68
2018-08-16T07:55:17.251Z,35.86
2018-08-16T07:57:44.518Z,34.68
2018-08-16T08:00:14.733Z,35.10
2018-08-16T08:02:42.312Z,34.50
2018-08-16T08:05:09.842Z,33.60
2018-08-16T08:07:37.093Z,34.74
2018-08-16T08:10:04.571Z,33.93
2018-08-16T08:12:31.828Z,33.32
2018-08-16T08:14:59.145Z,32.49
2018-08-16T08:17:26.418Z,32.77
2018-08-16T08:19:53.648Z,32.04
2018-08-16T08:22:20.882Z,32.63
2018-08-16T08:24:48.134Z,32.24
2018-08-16T08:27:15.383Z,31.26
2018-08-16T08:29:42.588Z,30.05
2018-08-16T08:32:09.891Z,30.37
2018-08-16T08:34:37.179Z,30.17
2018-08-16T08:37:15.804Z,29.75
2018-08-16T08:39:43.017Z,28.86
2018-08-16T08:42:10.328Z,28.24
2018-08-16T08:44:37.596Z,28.25
2018-08-16T08:47:04.879Z,29.21
2018-08-16T08:49:32.129Z,29.70
2018-08-16T08:51:59.426Z,30.07
2018-08-16T08:55:08.764Z,28.96
2018-08-16T08:57:47.439Z,29.18
2018-08-16T09:00:14.726Z,29.81
2018-08-16T09:02:41.958Z,28.48
2018-08-16T09:05:09.267Z,28.43
2018-08-16T09:07:36.596Z,29.35
2018-08-16T09:11:16.044Z,28.31
2018-08-16T09:13:55.875Z,27.71
2018-08-16T09:16:29.273Z,27.12
2018-08-16T09:18:56.861Z,28.47
2018-08-16T09:21:24.205Z,28.16
2018-08-16T09:23:51.524Z,27.12
2018-08-16T09:26:24.587Z,27.90
2018-08-16T09:28:51.892Z,27.52
2018-08-16T09:31:31.149Z,28.43
2018-08-16T09:34:17.695Z,27.82
2018-08-16T09:36:45.029Z,29.19
2018-08-16T09:39:12.364Z,28.27
2018-08-16T09:41:39.694Z,27.78
2018-08-16T09:44:07.163Z,27.80
2018-08-16T09:47:00.736Z,26.84
2018-08-16T09:49:29.311Z,27.06
2018-08-16T09:51:56.753Z,27.81
2018-08-16T09:54:24.063Z,27.40
2018-08-16T09:56:51.799Z,28.55
2018-08-16T09:59:19.211Z,27.05
2018-08-16T10:01:46.544Z,27.86
2018-08-16T10:04:13.823Z,26.83
2018-08-16T10:06:41.894Z,26.81
2018-08-16T10:09:11.012Z,26.55
2018-08-16T10:11:38.296Z,25.92
2018-08-16T10:14:05.577Z,26.23
2018-08-16T10:16:33.160Z,26.38
2018-08-16T10:19:00.487Z,25.68
2018-08-16T10:21:27.764Z,25.13
2018-08-16T10:23:54.998Z,24.54
2018-08-16T10:26:28.990Z,25.33
2018-08-16T10:28:56.242Z,24.80
2018-08-16T10:31:24.043Z,24.87
2018-08-16T10:33:51.287Z,24.29
2018-08-16T10:36:18.526Z,23.96
2018-08-16T10:38:45.808Z,23.69
2018-08-16T10:41:13.054Z,24.18
2018-08-16T10:43:40.312Z,26.21
2018-08-16T10:46:07.667Z,26.15
2018-08-16T10:48:34.964Z,26.15
2018-08-16T10:51:02.569Z,24.54
2018-08-16T10:53:29.825Z,23.85
2018-08-16T10:55:57.595Z,23.41
2018-08-16T10:58:24.821Z,24.43
2018-08-16T11:00:52.076Z,24.00
2018-08-16T11:03:19.556Z,23.81
2018-08-16T11:05:46.827Z,23.76
2018-08-16T11:08:14.087Z,23.85
2018-08-16T11:10:41.388Z,24.68
2018-08-16T11:13:08.667Z,23.70
2018-08-16T11:15:35.944Z,23.22
2018-08-16T11:18:03.199Z,22.64
2018-08-16T11:20:30.447Z,22.95
2018-08-16T11:22:57.687Z,23.31
2018-08-16T11:25:24.910Z,22.31
2018-08-16T11:27:52.123Z,21.43
2018-08-16T11:30:19.518Z,21.93
2018-08-16T11:32:46.759Z,22.92
2018-08-16T11:35:14.079Z,23.11
2018-08-16T11:37:41.345Z,23.92
2018-08-16T11:40:09.480Z,23.22
2018-08-16T11:42:36.765Z,23.61
2018-08-16T11:45:04.784Z,22.76
2018-08-16T11:47:32.002Z,22.10
2018-08-16T11:49:59.219Z,22.05
2018-08-16T11:52:26.436Z,21.60
2018-08-16T11:54:53.669Z,20.83
2018-08-16T11:57:20.870Z,20.95
2018-08-16T11:59:48.070Z,20.87
2018-08-16T12:02:15.354Z,20.64
2018-08-16T12:04:42.575Z,19.78
2018-08-16T12:07:09.942Z,20.42
2018-08-16T12:09:37.156Z,20.43
2018-08-16T12:12:04.669Z,20.79
2018-08-16T12:14:31.943Z,20.45
2018-08-16T12:16:59.253Z,20.10
2018-08-16T12:19:26.471Z,20.80
2018-08-16T12:21:53.702Z,20.72
2018-08-16T12:24:20.928Z,20.41
2018-08-16T12:26:48.226Z,20.45
2018-08-16T12:29:15.460Z,20.88
2018-08-16T12:31:42.706Z,20.90
2018-08-16T12:34:09.928Z,21.23
2018-08-16T12:36:37.227Z,21.25
2018-08-16T12:39:05.536Z,21.52
2018-08-16T12:41:32.791Z,20.85
2018-08-16T12:44:00.000Z,21.59
2018-08-16T12:46:27.268Z,21.75
2018-08-16T12:48:54.479Z,20.78
2018-08-16T12:51:21.695Z,20.99
2018-08-16T12:53:48.887Z,20.96
2018-08-16T12:56:16.134Z,20.84
2018-08-16T12:58:43.341Z,20.66
2018-08-16T13:01:10.618Z,20.81
2018-08-16T13:03:37.867Z,20.92
2018-08-16T13:06:19.335Z,20.79
2018-08-16T13:08:47.497Z,20.31
2018-08-16T13:11:14.715Z,20.84
2018-08-16T13:13:42.022Z,20.58
2018-08-16T13:16:09.408Z,19.74
2018-08-16T13:18:36.642Z,19.93
2018-08-16T13:21:04.015Z,20.92
2018-08-16T13:23:31.270Z,21.41
2018-08-16T13:25:58.558Z,21.23
2018-08-16T13:28:25.827Z,20.58
2018-08-16T13:30:53.129Z,21.58
2018-08-16T13:33:20.396Z,21.03
2018-08-16T13:35:47.667Z,20.64
2018-08-16T13:38:14.923Z,22.10
2018-08-16T13:40:43.563Z,21.23
2018-08-16T13:43:10.789Z,21.68
2018-08-16T13:45:38.087Z,20.67
2018-08-16T13:48:05.466Z,21.65
2018-08-16T13:50:32.765Z,22.03
2018-08-16T13:52:59.958Z,22.42
2018-08-16T13:55:27.186Z,22.74
2018-08-16T13:57:54.464Z,23.12
2018-08-16T14:00:21.731Z,22.73
2018-08-16T14:02:48.997Z,22.15
2018-08-16T14:05:16.244Z,22.60
2018-08-16T14:07:43.774Z,22.79
2018-08-16T14:10:10.999Z,22.61
2018-08-16T14:12:38.810Z,23.09
2018-08-16T14:15:06.362Z,21.90
2018-08-16T14:17:33.641Z,21.95
2018-08-16T14:20:00.870Z,22.46
2018-08-16T14:22:28.131Z,22.50
2018-08-16T14:24:55.403Z,22.97
2018-08-16T14:27:22.708Z,24.11
2018-08-16T14:29:49.921Z,23.35
2018-08-16T14:32:17.211Z,23.27
2018-08-16T14:34:44.456Z,22.80
2018-08-16T14:37:12.654Z,23.32
2018-08-16T14:39:39.923Z,23.60
2018-08-16T14:42:07.326Z,23.62
2018-08-16T14:44:34.536Z,23.00
2018-08-16T14:47:01.807Z,23.40
2018-08-16T14:49:29.008Z,23.30
2018-08-16T14:51:56.316Z,24.21
2018-08-16T14:54:23.520Z,23.88
2018-08-16T14:56:50.762Z,23.71
2018-08-16T14:59:17.997Z,24.71
2018-08-16T15:01:45.240Z,24.63
2018-08-16T15:04:12.456Z,24.21
2018-08-16T15:06:39.705Z,24.00
2018-08-16T15:09:09.344Z,24.79
2018-08-16T15:11:36.583Z,24.94
2018-08-16T15:14:03.855Z,24.38
2018-08-16T15:16:31.155Z,24.10
2018-08-16T15:18:58.556Z,24.63
2018-08-16T15:21:25.774Z,23.96
2018-08-16T15:23:53.028Z,23.98
2018-08-16T15:26:20.414Z,24.59
2018-08-16T15:28:47.663Z,24.84
2018-08-16T15:31:14.919Z,24.58
2018-08-16T15:33:42.148Z,24.93
2018-08-16T15:36:09.367Z,25.42
2018-08-16T15:38:36.698Z,24.93
2018-08-16T15:41:04.005Z,25.82
2018-08-16T15:43:31.415Z,25.39
2018-08-16T15:45:58.640Z,24.89
2018-08-16T15:48:25.868Z,25.72
2018-08-16T15:50:54.057Z,25.90
2018-08-16T15:53:21.287Z,25.51
2018-08-16T15:55:48.535Z,25.23
2018-08-16T15:58:15.781Z,26.13
2018-08-16T16:00:43.011Z,25.72
2018-08-16T16:03:10.248Z,25.96
2018-08-16T16:05:37.627Z,25.61
2018-08-16T16:08:04.877Z,26.28
2018-08-16T16:10:32.172Z,25.89
2018-08-16T16:12:59.388Z,26.15
2018-08-16T16:15:26.622Z,26.05
2018-08-16T16:17:53.865Z,26.77
2018-08-16T16:20:21.082Z,27.03
2018-08-16T16:22:48.330Z,27.06
2018-08-16T16:25:15.538Z,26.96
2018-08-16T16:27:42.779Z,26.89
2018-08-16T16:30:10.614Z,27.00
2018-08-16T16:32:37.828Z,26.57
2018-08-16T16:35:05.221Z,26.46
2018-08-16T16:37:32.436Z,26.88
2018-08-16T16:39:59.670Z,27.11
2018-08-16T16:42:26.898Z,27.00
2018-08-16T16:44:54.740Z,26.92
2018-08-16T16:47:22.019Z,26.85
2018-08-16T16:49:49.264Z,27.18
2018-08-16T16:52:16.581Z,27.82
2018-08-16T16:54:43.766Z,26.90
2018-08-16T16:57:10.966Z,27.36
2018-08-16T16:59:38.214Z,27.52
2018-08-16T17:02:05.730Z,27.67
2018-08-16T17:04:32.960Z,28.21
2018-08-16T17:07:00.211Z,27.87
2018-08-16T17:09:27.505Z,28.07
2018-08-16T17:11:54.720Z,28.76
2018-08-16T17:14:21.984Z,28.45
2018-08-16T17:16:49.244Z,27.78
2018-08-16T17:19:16.622Z,27.90
2018-08-16T17:21:43.843Z,27.80
2018-08-16T17:24:11.090Z,27.93
2018-08-16T17:26:39.411Z,28.61
2018-08-16T17:29:09.621Z,28.34
2018-08-16T17:31:36.852Z,28.46
2018-08-16T17:34:04.161Z,28.78
2018-08-16T17:36:32.421Z,28.51
2018-08-16T17:39:05.052Z,28.54
2018-08-16T17:41:35.044Z,28.84
2018-08-16T17:44:03.395Z,29.29
2018-08-16T17:46:31.903Z,29.15
2018-08-16T17:49:00.716Z,31.34
2018-08-16T17:51:28.095Z,31.41
2018-08-16T17:53:58.386Z,31.90
2018-08-16T17:56:28.039Z,32.30
2018-08-16T17:58:55.907Z,32.26
2018-08-16T18:01:25.323Z,33.84
2018-08-16T18:03:54.809Z,34.44
2018-08-16T18:06:29.931Z,34.71
2018-08-16T18:08:59.708Z,34.62
2018-08-16T18:11:29.159Z,34.44
2018-08-16T18:13:58.866Z,35.04
2018-08-16T18:16:26.166Z,35.15
2018-08-16T18:18:53.528Z,36.04
2018-08-16T18:21:20.873Z,36.94
2018-08-16T18:23:48.394Z,36.59
2018-08-16T18:26:15.788Z,38.01
2018-08-16T18:28:43.737Z,37.86
2018-08-16T18:34:26.506Z,39.22
2018-08-16T18:36:54.009Z,39.00
2018-08-16T18:39:21.490Z,38.62
2018-08-16T18:41:49.143Z,38.92
2018-08-16T18:44:16.541Z,39.58
2018-08-16T18:46:43.850Z,39.61
2018-08-16T18:49:11.247Z,39.22
2018-08-16T18:51:38.569Z,40.51
2018-08-16T18:54:05.958Z,40.77
2018-08-16T18:56:33.568Z,42.13
2018-08-16T18:59:00.953Z,42.26
2018-08-16T19:01:28.305Z,42.92
2018-08-16T19:03:56.262Z,42.80
2018-08-16T19:06:23.655Z,43.08
2018-08-16T19:08:51.186Z,42.98
2018-08-16T19:11:18.608Z,43.54
2018-08-16T19:13:45.926Z,43.73
2018-08-16T19:16:13.338Z,44.10
2018-08-16T19:18:40.808Z,45.13
2018-08-16T19:21:08.129Z,44.84
2018-08-16T19:23:35.746Z,44.46
2018-08-16T19:26:03.825Z,42.74
2018-08-16T19:28:31.121Z,42.24
2018-08-16T19:30:58.932Z,42.72
2018-08-16T19:33:26.296Z,42.85
2018-08-16T19:35:53.657Z,42.60
2018-08-16T19:38:20.946Z,43.40
2018-08-16T19:40:48.268Z,43.74
2018-08-16T19:43:15.635Z,44.27
2018-08-16T19:45:43.419Z,44.69
2018-08-16T19:48:10.895Z,44.30
2018-08-16T19:50:38.115Z,43.38
2018-08-16T19:53:06.349Z,43.91
2018-08-16T19:55:33.754Z,43.55
2018-08-16T19:58:01.094Z,43.71
2018-08-16T20:00:29.248Z,43.93
2018-08-16T20:02:56.656Z,43.95
2018-08-16T20:05:23.961Z,43.77
2018-08-16T20:07:51.380Z,43.30
2018-08-16T20:10:19.510Z,42.93
2018-08-16T20:12:46.913Z,42.62
2018-08-16T20:15:14.305Z,42.45
2018-08-16T20:17:41.618Z,42.60
2018-08-16T20:20:09.158Z,42.30
2018-08-16T20:22:36.468Z,42.56
2018-08-16T20:25:04.173Z,42.41
2018-08-16T20:27:31.362Z,42.36
2018-08-16T20:29:58.639Z,42.37
2018-08-16T20:32:25.884Z,42.57
2018-08-16T20:34:53.136Z,43.24
2018-08-16T20:37:20.374Z,43.54
2018-08-16T20:39:47.618Z,42.76
2018-08-16T20:42:14.894Z,43.35
2018-08-16T20:44:42.491Z,43.71
2018-08-16T20:47:09.752Z,43.55
2018-08-16T20:49:36.994Z,43.68
2018-08-16T20:52:04.362Z,43.73
2018-08-16T20:54:31.592Z,43.29
2018-08-16T20:56:58.835Z,43.63
2018-08-16T20:59:26.072Z,43.75
2018-08-16T21:01:53.350Z,43.53
2018-08-16T21:04:20.557Z,44.34
2018-08-16T21:06:47.834Z,44.39
2018-08-16T21:09:15.051Z,45.21
2018-08-16T21:11:42.320Z,45.86
2018-08-16T21:14:09.532Z,46.44
2018-08-16T21:16:36.811Z,46.47
2018-08-16T21:19:04.095Z,46.69
2018-08-16T21:21:31.361Z,47.13
2018-08-16T21:23:58.558Z,47.66
2018-08-16T21:26:25.902Z,47.93
2018-08-16T21:28:53.112Z,48.46
2018-08-16T21:31:20.341Z,48.51
2018-08-16T21:33:47.581Z,48.54
2018-08-16T21:36:14.819Z,48.25
2018-08-16T21:38:42.223Z,48.53
2018-08-16T21:41:09.451Z,48.99
2018-08-16T21:43:36.654Z,49.25
2018-08-16T21:46:04.074Z,50.02
2018-08-16T21:48:31.296Z,50.41
2018-08-16T21:50:58.531Z,50.18
2018-08-16T21:53:25.734Z,50.16
2018-08-16T21:55:52.990Z,50.44
2018-08-16T21:58:20.203Z,50.37
2018-08-16T22:00:55.746Z,50.61
2018-08-16T22:03:24.360Z,50.67
2018-08-16T22:06:00.703Z,51.18
2018-08-16T22:08:31.851Z,51.48
2018-08-16T22:10:59.070Z,52.06
2018-08-16T22:13:27.155Z,52.34
2018-08-16T22:15:54.481Z,52.18
2018-08-16T22:18:21.698Z,52.92
2018-08-16T22:20:48.966Z,52.59
2018-08-16T22:23:16.202Z,53.06
2018-08-16T22:25:43.430Z,52.29
2018-08-16T22:28:10.678Z,51.63
2018-08-16T22:30:37.876Z,50.43
2018-08-16T22:33:05.148Z,49.88
2018-08-16T22:35:32.344Z,49.34
2018-08-16T22:37:59.565Z,48.71
2018-08-16T22:40:26.763Z,48.98
2018-08-16T22:42:53.964Z,49.42
2018-08-16T22:45:21.218Z,49.76
2018-08-16T22:47:48.475Z,49.90
2018-08-16T22:50:15.704Z,49.79
2018-08-16T22:52:42.934Z,49.39
2018-08-16T22:55:10.198Z,49.58
2018-08-16T22:57:37.432Z,49.63
2018-08-16T23:00:05.825Z,49.76
2018-08-16T23:02:33.070Z,49.72
2018-08-16T23:05:00.322Z,49.25
2018-08-16T23:07:27.564Z,49.27
2018-08-16T23:09:54.757Z,48.95
2018-08-16T23:12:22.039Z,48.97
2018-08-16T23:14:49.238Z,48.83
2018-08-16T23:17:16.478Z,48.89
2018-08-16T23:19:43.675Z,49.16
2018-08-16T23:22:10.896Z,49.34
2018-08-16T23:24:38.136Z,49.65
2018-08-16T23:27:05.475Z,50.33
2018-08-16T23:29:32.658Z,50.18
2018-08-16T23:31:59.895Z,50.45
2018-08-16T23:34:27.082Z,50.53
2018-08-16T23:36:54.335Z,50.52
2018-08-16T23:39:21.534Z,50.80
2018-08-16T23:41:48.766Z,50.93
2018-08-16T23:44:16.006Z,51.22
2018-08-16T23:46:43.192Z,51.22
2018-08-16T23:49:10.410Z,51.14
2018-08-16T23:51:37.604Z,51.01
2018-08-16T23:54:04.869Z,51.31
2018-08-16T23:56:32.079Z,51.59
2018-08-16T23:58:59.345Z,51.38
